sensor_id;sensor_type;location;lat;lon;timestamp;pressure;altitude;pressure_sealevel;temperature;humidity
46724;BME280;32463;48.298;11.620;2023-03-20T00:02:05;96500.09;;;7.86;100.00
46724;BME280;32463;48.298;11.620;2023-03-20T00:04:32;96496.84;;;7.84;100.00
46724;BME280;32463;48.298;11.620;2023-03-20T00:06:59;96494.53;;;7.81;100.00
46724;BME280;32463;48.298;11.620;2023-03-20T00:09:25;96499.69;;;7.81;100.00
46724;BME280;32463;48.298;11.620;2023-03-20T00:11:53;96500.38;;;7.83;100.00
46724;BME280;32463;48.298;11.620;2023-03-20T00:14:21;96496.56;;;7.87;100.00
46724;BME280;32463;48.298;11.620;2023-03-20T00:16:49;96505.28;;;7.86;100.00
46724;BME280;32463;48.298;11.620;2023-03-20T00:19:21;96496.84;;;7.84;100.00
46724;BME280;32463;48.298;11.620;2023-03-20T00:21:49;96493.72;;;7.81;100.00
46724;BME280;32463;48.298;11.620;2023-03-20T00:24:16;96503.63;;;7.75;100.00
46724;BME280;32463;48.298;11.620;2023-03-20T00:26:44;96498.47;;;7.75;100.00
46724;BME280;32463;48.298;11.620;2023-03-20T00:29:25;96498.63;;;7.74;100.00
46724;BME280;32463;48.298;11.620;2023-03-20T00:31:53;96498.75;;;7.72;100.00
46724;BME280;32463;48.298;11.620;2023-03-20T00:34:21;96497.13;;;7.71;100.00
46724;BME280;32463;48.298;11.620;2023-03-20T00:36:50;96501.47;;;7.71;100.00
46724;BME280;32463;48.298;11.620;2023-03-20T00:39:17;96491.97;;;7.71;100.00
46724;BME280;32463;48.298;11.620;2023-03-20T00:41:49;96494.66;;;7.70;100.00
46724;BME280;32463;48.298;11.620;2023-03-20T00:46:55;96504.19;;;7.69;100.00
46724;BME280;32463;48.298;11.620;2023-03-20T00:49:32;96500.50;;;7.72;100.00
46724;BME280;32463;48.298;11.620;2023-03-20T00:52:00;96500.78;;;7.69;100.00
46724;BME280;32463;48.298;11.620;2023-03-20T00:54:27;96498.19;;;7.69;100.00
46724;BME280;32463;48.298;11.620;2023-03-20T00:56:59;96501.47;;;7.71;100.00
46724;BME280;32463;48.298;11.620;2023-03-20T00:59:30;96503.34;;;7.69;100.00
46724;BME280;32463;48.298;11.620;2023-03-20T01:01:58;96495.25;;;7.64;100.00
46724;BME280;32463;48.298;11.620;2023-03-20T01:04:38;96494.94;;;7.67;100.00
46724;BME280;32463;48.298;11.620;2023-03-20T01:07:06;96503.63;;;7.66;100.00
46724;BME280;32463;48.298;11.620;2023-03-20T01:09:35;96500.66;;;7.61;100.00
46724;BME280;32463;48.298;11.620;2023-03-20T01:12:03;96510.72;;;7.64;100.00
46724;BME280;32463;48.298;11.620;2023-03-20T01:14:32;96497.13;;;7.62;100.00
46724;BME280;32463;48.298;11.620;2023-03-20T01:16:58;96501.34;;;7.63;100.00
46724;BME280;32463;48.298;11.620;2023-03-20T01:19:25;96499.84;;;7.60;100.00
46724;BME280;32463;48.298;11.620;2023-03-20T01:21:51;96503.25;;;7.61;100.00
46724;BME280;32463;48.298;11.620;2023-03-20T01:24:18;96496.31;;;7.61;100.00
46724;BME280;32463;48.298;11.620;2023-03-20T01:26:44;96497.13;;;7.62;100.00
46724;BME280;32463;48.298;11.620;2023-03-20T01:29:19;96505.81;;;7.61;100.00
46724;BME280;32463;48.298;11.620;2023-03-20T01:31:46;96507.47;;;7.62;100.00
46724;BME280;32463;48.298;11.620;2023-03-20T01:34:16;96499.72;;;7.62;100.00
46724;BME280;32463;48.298;11.620;2023-03-20T01:36:47;96504.19;;;7.60;100.00
46724;BME280;32463;48.298;11.620;2023-03-20T01:39:16;96508.69;;;7.58;100.00
46724;BME280;32463;48.298;11.620;2023-03-20T01:41:43;96502.97;;;7.54;100.00
46724;BME280;32463;48.298;11.620;2023-03-20T01:44:21;96503.78;;;7.55;100.00
46724;BME280;32463;48.298;11.620;2023-03-20T01:46:51;96507.03;;;7.57;100.00
46724;BME280;32463;48.298;11.620;2023-03-20T01:51:45;96508.25;;;7.53;100.00
46724;BME280;32463;48.298;11.620;2023-03-20T01:54:13;96502.56;;;7.59;100.00
46724;BME280;32463;48.298;11.620;2023-03-20T01:57:07;96505.00;;;7.60;100.00
46724;BME280;32463;48.298;11.620;2023-03-20T01:59:32;96508.69;;;7.58;100.00
46724;BME280;32463;48.298;11.620;2023-03-20T02:02:00;96504.47;;;7.57;100.00
46724;BME280;32463;48.298;11.620;2023-03-20T02:04:35;96506.50;;;7.53;100.00
46724;BME280;32463;48.298;11.620;2023-03-20T02:07:03;96500.53;;;7.53;100.00
46724;BME280;32463;48.298;11.620;2023-03-20T02:09:31;96499.56;;;7.54;100.00
46724;BME280;32463;48.298;11.620;2023-03-20T02:11:59;96501.47;;;7.52;100.00
46724;BME280;32463;48.298;11.620;2023-03-20T02:14:27;96497.69;;;7.56;100.00
46724;BME280;32463;48.298;11.620;2023-03-20T02:16:53;96508.00;;;7.56;100.00
46724;BME280;32463;48.298;11.620;2023-03-20T02:19:30;96497.13;;;7.52;100.00
46724;BME280;32463;48.298;11.620;2023-03-20T02:41:33;96501.59;;;7.50;100.00
46724;BME280;32463;48.298;11.620;2023-03-20T02:44:22;96493.88;;;7.50;100.00
46724;BME280;32463;48.298;11.620;2023-03-20T02:47:09;96497.41;;;7.59;100.00
46724;BME280;32463;48.298;11.620;2023-03-20T02:52:55;96495.50;;;7.61;100.00
46724;BME280;32463;48.298;11.620;2023-03-20T02:58:21;96495.78;;;7.58;100.00
46724;BME280;32463;48.298;11.620;2023-03-20T03:00:57;96491.69;;;7.55;100.00
46724;BME280;32463;48.298;11.620;2023-03-20T03:03:32;96500.66;;;7.61;100.00
46724;BME280;32463;48.298;11.620;2023-03-20T03:08:43;96500.66;;;7.61;100.00
46724;BME280;32463;48.298;11.620;2023-03-20T03:11:12;96497.53;;;7.57;100.00
46724;BME280;32463;48.298;11.620;2023-03-20T03:13:44;96494.41;;;7.54;100.00
46724;BME280;32463;48.298;11.620;2023-03-20T03:16:26;96496.31;;;7.52;100.00
46724;BME280;32463;48.298;11.620;2023-03-20T03:19:07;96506.63;;;7.52;100.00
46724;BME280;32463;48.298;11.620;2023-03-20T03:21:36;96512.06;;;7.49;100.00
46724;BME280;32463;48.298;11.620;2023-03-20T03:24:04;96502.97;;;7.44;100.00
46724;BME280;32463;48.298;11.620;2023-03-20T03:26:37;96510.69;;;7.44;100.00
46724;BME280;32463;48.298;11.620;2023-03-20T03:29:10;96507.16;;;7.46;100.00
46724;BME280;32463;48.298;11.620;2023-03-20T03:31:39;96511.66;;;7.43;100.00
46724;BME280;32463;48.298;11.620;2023-03-20T03:34:11;96526.44;;;7.41;100.00
46724;BME280;32463;48.298;11.620;2023-03-20T03:37:06;96512.59;;;7.42;100.00
46724;BME280;32463;48.298;11.620;2023-03-20T03:40:27;96519.38;;;7.43;100.00
46724;BME280;32463;48.298;11.620;2023-03-20T03:42:38;96531.06;;;7.48;100.00
46724;BME280;32463;48.298;11.620;2023-03-20T03:45:12;96529.31;;;7.48;100.00
46724;BME280;32463;48.298;11.620;2023-03-20T03:47:45;96536.22;;;7.48;100.00
46724;BME280;32463;48.298;11.620;2023-03-20T03:50:23;96532.97;;;7.46;100.00
46724;BME280;32463;48.298;11.620;2023-03-20T03:52:57;96529.72;;;7.53;100.00
46724;BME280;32463;48.298;11.620;2023-03-20T03:55:29;96536.50;;;7.54;100.00
46724;BME280;32463;48.298;11.620;2023-03-20T03:58:12;96535.97;;;7.51;100.00
46724;BME280;32463;48.298;11.620;2023-03-20T04:00:42;96541.25;;;7.49;100.00
46724;BME280;32463;48.298;11.620;2023-03-20T04:03:11;96538.53;;;7.51;100.00
46724;BME280;32463;48.298;11.620;2023-03-20T04:05:40;96541.13;;;7.51;100.00
46724;BME280;32463;48.298;11.620;2023-03-20T04:08:08;96534.31;;;7.50;100.00
46724;BME280;32463;48.298;11.620;2023-03-20T04:10:34;96539.47;;;7.50;100.00
46724;BME280;32463;48.298;11.620;2023-03-20T04:13:01;96541.94;;;7.51;100.00
46724;BME280;32463;48.298;11.620;2023-03-20T04:15:27;96547.09;;;7.51;100.00
46724;BME280;32463;48.298;11.620;2023-03-20T04:17:54;96546.28;;;7.51;100.00
46724;BME280;32463;48.298;11.620;2023-03-20T04:20:21;96546.69;;;7.56;100.00
46724;BME280;32463;48.298;11.620;2023-03-20T04:22:47;96556.06;;;7.57;100.00
46724;BME280;32463;48.298;11.620;2023-03-20T04:25:17;96538.97;;;7.56;100.00
46724;BME280;32463;48.298;11.620;2023-03-20T04:27:44;96544.94;;;7.56;100.00
46724;BME280;32463;48.298;11.620;2023-03-20T04:30:11;96540.88;;;7.63;100.00
46724;BME280;32463;48.298;11.620;2023-03-20T04:32:38;96554.72;;;7.62;100.00
46724;BME280;32463;48.298;11.620;2023-03-20T04:35:05;96551.59;;;7.59;100.00
46724;BME280;32463;48.298;11.620;2023-03-20T04:37:32;96549.81;;;7.59;100.00
46724;BME280;32463;48.298;11.620;2023-03-20T04:39:58;96564.22;;;7.62;100.00
46724;BME280;32463;48.298;11.620;2023-03-20T04:42:24;96555.81;;;7.60;100.00
46724;BME280;32463;48.298;11.620;2023-03-20T04:44:51;96563.66;;;7.58;100.00
46724;BME280;32463;48.298;11.620;2023-03-20T04:47:17;96559.31;;;7.59;100.00
46724;BME280;32463;48.298;11.620;2023-03-20T04:49:44;96564.50;;;7.59;100.00
46724;BME280;32463;48.298;11.620;2023-03-20T04:52:10;96566.94;;;7.60;100.00
46724;BME280;32463;48.298;11.620;2023-03-20T04:54:36;96572.22;;;7.59;100.00
46724;BME280;32463;48.298;11.620;2023-03-20T04:57:04;96558.91;;;7.54;100.00
46724;BME280;32463;48.298;11.620;2023-03-20T04:59:30;96568.41;;;7.53;100.00
46724;BME280;32463;48.298;11.620;2023-03-20T05:01:57;96574.25;;;7.55;100.00
46724;BME280;32463;48.298;11.620;2023-03-20T05:04:23;96573.19;;;7.58;100.00
46724;BME280;32463;48.298;11.620;2023-03-20T05:06:50;96567.47;;;7.54;100.00
46724;BME280;32463;48.298;11.620;2023-03-20T05:09:16;96578.59;;;7.55;100.00
46724;BME280;32463;48.298;11.620;2023-03-20T05:11:43;96579.53;;;7.54;100.00
46724;BME280;32463;48.298;11.620;2023-03-20T05:14:09;96577.66;;;7.56;100.00
46724;BME280;32463;48.298;11.620;2023-03-20T05:16:37;96572.75;;;7.53;100.00
46724;BME280;32463;48.298;11.620;2023-03-20T05:19:04;96576.97;;;7.54;100.00
46724;BME280;32463;48.298;11.620;2023-03-20T05:21:31;96578.72;;;7.53;100.00
46724;BME280;32463;48.298;11.620;2023-03-20T05:24:00;96586.59;;;7.52;100.00
46724;BME280;32463;48.298;11.620;2023-03-20T05:26:27;96589.19;;;7.52;100.00
46724;BME280;32463;48.298;11.620;2023-03-20T05:28:53;96589.19;;;7.52;100.00
46724;BME280;32463;48.298;11.620;2023-03-20T05:31:20;96592.84;;;7.49;100.00
46724;BME280;32463;48.298;11.620;2023-03-20T05:33:46;96594.59;;;7.49;100.00
46724;BME280;32463;48.298;11.620;2023-03-20T05:36:13;96594.06;;;7.45;100.00
46724;BME280;32463;48.298;11.620;2023-03-20T05:38:40;96598.13;;;7.48;100.00
46724;BME280;32463;48.298;11.620;2023-03-20T05:41:06;96606.56;;;7.50;100.00
46724;BME280;32463;48.298;11.620;2023-03-20T05:43:33;96600.44;;;7.51;100.00
46724;BME280;32463;48.298;11.620;2023-03-20T05:45:59;96606.44;;;7.51;100.00
46724;BME280;32463;48.298;11.620;2023-03-20T05:48:26;96605.34;;;7.54;100.00
46724;BME280;32463;48.298;11.620;2023-03-20T05:50:52;96606.28;;;7.53;100.00
46724;BME280;32463;48.298;11.620;2023-03-20T05:53:19;96596.75;;;7.43;100.00
46724;BME280;32463;48.298;11.620;2023-03-20T05:55:45;96605.22;;;7.55;100.00
46724;BME280;32463;48.298;11.620;2023-03-20T05:58:12;96611.44;;;7.53;100.00
46724;BME280;32463;48.298;11.620;2023-03-20T06:00:38;96613.34;;;7.51;100.00
46724;BME280;32463;48.298;11.620;2023-03-20T06:03:05;96610.91;;;7.49;100.00
46724;BME280;32463;48.298;11.620;2023-03-20T06:05:33;96622.03;;;7.50;100.00
46724;BME280;32463;48.298;11.620;2023-03-20T06:08:00;96625.13;;;7.43;100.00
46724;BME280;32463;48.298;11.620;2023-03-20T06:10:27;96623.13;;;7.57;100.00
46724;BME280;32463;48.298;11.620;2023-03-20T06:12:55;96622.88;;;7.60;100.00
46724;BME280;32463;48.298;11.620;2023-03-20T06:15:23;96629.00;;;7.59;100.00
46724;BME280;32463;48.298;11.620;2023-03-20T06:17:50;96623.28;;;7.55;100.00
46724;BME280;32463;48.298;11.620;2023-03-20T06:20:17;96623.66;;;7.51;100.00
46724;BME280;32463;48.298;11.620;2023-03-20T06:22:44;96633.72;;;7.54;100.00
46724;BME280;32463;48.298;11.620;2023-03-20T06:25:12;96635.63;;;7.52;100.00
46724;BME280;32463;48.298;11.620;2023-03-20T06:27:38;96636.56;;;7.51;100.00
46724;BME280;32463;48.298;11.620;2023-03-20T06:30:05;96639.81;;;7.53;100.00
46724;BME280;32463;48.298;11.620;2023-03-20T06:32:31;96640.50;;;7.55;100.00
46724;BME280;32463;48.298;11.620;2023-03-20T06:34:58;96645.16;;;7.61;100.00
46724;BME280;32463;48.298;11.620;2023-03-20T06:37:24;96641.88;;;7.68;100.00
46724;BME280;32463;48.298;11.620;2023-03-20T06:39:51;96646.91;;;7.70;100.00
46724;BME280;32463;48.298;11.620;2023-03-20T06:42:17;96644.06;;;7.73;100.00
46724;BME280;32463;48.298;11.620;2023-03-20T06:44:44;96648.97;;;7.76;100.00
46724;BME280;32463;48.298;11.620;2023-03-20T06:47:11;96641.34;;;7.74;100.00
46724;BME280;32463;48.298;11.620;2023-03-20T06:49:38;96643.94;;;7.74;100.00
46724;BME280;32463;48.298;11.620;2023-03-20T06:52:04;96647.47;;;7.73;100.00
46724;BME280;32463;48.298;11.620;2023-03-20T06:54:31;96643.53;;;7.79;100.00
46724;BME280;32463;48.298;11.620;2023-03-20T06:56:58;96646.28;;;7.87;100.00
46724;BME280;32463;48.298;11.620;2023-03-20T06:59:24;96641.09;;;7.77;100.00
46724;BME280;32463;48.298;11.620;2023-03-20T07:01:51;96639.34;;;7.88;100.00
46724;BME280;32463;48.298;11.620;2023-03-20T07:04:18;96640.16;;;7.88;100.00
46724;BME280;32463;48.298;11.620;2023-03-20T07:06:44;96655.25;;;7.93;100.00
46724;BME280;32463;48.298;11.620;2023-03-20T07:09:11;96643.56;;;7.89;100.00
46724;BME280;32463;48.298;11.620;2023-03-20T07:11:37;96652.25;;;7.88;100.00
46724;BME280;32463;48.298;11.620;2023-03-20T07:14:04;96656.03;;;7.74;100.00
46724;BME280;32463;48.298;11.620;2023-03-20T07:16:31;96652.25;;;7.88;100.00
46724;BME280;32463;48.298;11.620;2023-03-20T07:18:57;96652.81;;;7.91;100.00
46724;BME280;32463;48.298;11.620;2023-03-20T07:21:24;96662.97;;;7.83;100.00
46724;BME280;32463;48.298;11.620;2023-03-20T07:23:50;96667.72;;;7.97;100.00
46724;BME280;32463;48.298;11.620;2023-03-20T07:26:17;96668.41;;;7.99;100.00
46724;BME280;32463;48.298;11.620;2023-03-20T07:28:43;96664.25;;;8.37;100.00
46724;BME280;32463;48.298;11.620;2023-03-20T07:31:25;96672.13;;;8.64;100.00
46724;BME280;32463;48.298;11.620;2023-03-20T07:33:52;96676.59;;;8.62;100.00
46724;BME280;32463;48.298;11.620;2023-03-20T07:36:19;96686.56;;;8.48;100.00
46724;BME280;32463;48.298;11.620;2023-03-20T07:38:46;96673.78;;;8.46;100.00
46724;BME280;32463;48.298;11.620;2023-03-20T07:41:12;96685.72;;;8.66;100.00
46724;BME280;32463;48.298;11.620;2023-03-20T07:43:39;96686.25;;;8.80;100.00
46724;BME280;32463;48.298;11.620;2023-03-20T07:46:07;96698.06;;;8.92;100.00
46724;BME280;32463;48.298;11.620;2023-03-20T07:48:34;96684.84;;;8.95;100.00
46724;BME280;32463;48.298;11.620;2023-03-20T07:51:01;96686.00;;;9.20;100.00
46724;BME280;32463;48.298;11.620;2023-03-20T07:53:27;96677.94;;;9.32;100.00
46724;BME280;32463;48.298;11.620;2023-03-20T07:55:54;96687.91;;;9.55;100.00
46724;BME280;32463;48.298;11.620;2023-03-20T07:58:20;96675.38;;;9.50;100.00
46724;BME280;32463;48.298;11.620;2023-03-20T08:00:46;96691.06;;;9.49;100.00
46724;BME280;32463;48.298;11.620;2023-03-20T08:03:13;96689.16;;;9.51;100.00
46724;BME280;32463;48.298;11.620;2023-03-20T08:05:39;96688.69;;;9.65;100.00
46724;BME280;32463;48.298;11.620;2023-03-20T08:08:06;96687.31;;;9.88;100.00
46724;BME280;32463;48.298;11.620;2023-03-20T08:10:32;96695.34;;;9.95;100.00
46724;BME280;32463;48.298;11.620;2023-03-20T08:12:59;96686.00;;;9.57;100.00
46724;BME280;32463;48.298;11.620;2023-03-20T08:15:25;96687.53;;;9.77;100.00
46724;BME280;32463;48.298;11.620;2023-03-20T08:17:52;96688.13;;;9.71;100.00
46724;BME280;32463;48.298;11.620;2023-03-20T08:20:18;96680.78;;;9.66;100.00
46724;BME280;32463;48.298;11.620;2023-03-20T08:22:45;96692.81;;;9.58;100.00
46724;BME280;32463;48.298;11.620;2023-03-20T08:25:13;96685.41;;;9.63;100.00
46724;BME280;32463;48.298;11.620;2023-03-20T08:27:40;96682.53;;;9.93;100.00
46724;BME280;32463;48.298;11.620;2023-03-20T08:30:07;96675.25;;;9.79;100.00
46724;BME280;32463;48.298;11.620;2023-03-20T08:32:34;96659.31;;;10.01;100.00
46724;BME280;32463;48.298;11.620;2023-03-20T08:35:02;96677.50;;;10.80;100.00
46724;BME280;32463;48.298;11.620;2023-03-20T08:37:28;96666.81;;;11.09;100.00
46724;BME280;32463;48.298;11.620;2023-03-20T08:39:55;96673.09;;;10.99;100.00
46724;BME280;32463;48.298;11.620;2023-03-20T08:42:21;96670.50;;;10.55;100.00
46724;BME280;32463;48.298;11.620;2023-03-20T08:44:48;96673.41;;;11.04;100.00
46724;BME280;32463;48.298;11.620;2023-03-20T08:47:14;96659.66;;;11.37;100.00
46724;BME280;32463;48.298;11.620;2023-03-20T08:49:40;96666.38;;;11.90;100.00
46724;BME280;32463;48.298;11.620;2023-03-20T08:52:07;96664.25;;;11.94;100.00
46724;BME280;32463;48.298;11.620;2023-03-20T08:54:34;96666.94;;;11.76;100.00
46724;BME280;32463;48.298;11.620;2023-03-20T08:57:00;96669.03;;;11.72;100.00
46724;BME280;32463;48.298;11.620;2023-03-20T08:59:27;96665.47;;;11.31;100.00
46724;BME280;32463;48.298;11.620;2023-03-20T09:01:54;96671.50;;;11.06;100.00
46724;BME280;32463;48.298;11.620;2023-03-20T09:04:20;96671.69;;;10.87;100.00
46724;BME280;32463;48.298;11.620;2023-03-20T09:06:46;96673.69;;;10.93;100.00
46724;BME280;32463;48.298;11.620;2023-03-20T09:09:14;96672.50;;;10.61;100.00
46724;BME280;32463;48.298;11.620;2023-03-20T09:11:42;96675.16;;;10.69;100.00
46724;BME280;32463;48.298;11.620;2023-03-20T09:14:10;96681.47;;;10.93;100.00
46724;BME280;32463;48.298;11.620;2023-03-20T09:16:36;96673.13;;;11.07;100.00
46724;BME280;32463;48.298;11.620;2023-03-20T09:19:04;96669.66;;;11.24;100.00
46724;BME280;32463;48.298;11.620;2023-03-20T09:21:30;96679.44;;;11.30;100.00
46724;BME280;32463;48.298;11.620;2023-03-20T09:23:57;96677.91;;;10.68;100.00
46724;BME280;32463;48.298;11.620;2023-03-20T09:26:23;96686.06;;;10.37;100.00
46724;BME280;32463;48.298;11.620;2023-03-20T09:28:49;96683.63;;;10.36;100.00
46724;BME280;32463;48.298;11.620;2023-03-20T09:31:16;96679.91;;;10.56;100.00
46724;BME280;32463;48.298;11.620;2023-03-20T09:33:42;96692.50;;;10.51;100.00
46724;BME280;32463;48.298;11.620;2023-03-20T09:36:09;96681.59;;;10.65;100.00
46724;BME280;32463;48.298;11.620;2023-03-20T09:38:36;96683.34;;;10.83;100.00
46724;BME280;32463;48.298;11.620;2023-03-20T09:41:06;96691.03;;;11.18;100.00
46724;BME280;32463;48.298;11.620;2023-03-20T09:44:03;96693.03;;;11.32;100.00
46724;BME280;32463;48.298;11.620;2023-03-20T09:49:56;96691.50;;;12.48;100.00
46724;BME280;32463;48.298;11.620;2023-03-20T09:52:30;96675.34;;;13.18;100.00
46724;BME280;32463;48.298;11.620;2023-03-20T09:55:04;96682.38;;;12.20;100.00
46724;BME280;32463;48.298;11.620;2023-03-20T09:57:39;96679.50;;;11.80;100.00
46724;BME280;32463;48.298;11.620;2023-03-20T10:00:14;96679.94;;;12.42;100.00
46724;BME280;32463;48.298;11.620;2023-03-20T10:02:49;96677.47;;;12.08;100.00
46724;BME280;32463;48.298;11.620;2023-03-20T10:05:26;96678.50;;;12.72;100.00
46724;BME280;32463;48.298;11.620;2023-03-20T10:07:55;96671.16;;;13.00;100.00
46724;BME280;32463;48.298;11.620;2023-03-20T10:10:36;96672.97;;;12.59;100.00
46724;BME280;32463;48.298;11.620;2023-03-20T10:13:26;96674.25;;;12.71;100.00
46724;BME280;32463;48.298;11.620;2023-03-20T10:18:41;96673.94;;;12.58;100.00
46724;BME280;32463;48.298;11.620;2023-03-20T10:21:17;96665.16;;;12.19;100.00
46724;BME280;32463;48.298;11.620;2023-03-20T10:26:28;96668.38;;;11.70;100.00
46724;BME280;32463;48.298;11.620;2023-03-20T10:29:01;96664.50;;;12.17;100.00
46724;BME280;32463;48.298;11.620;2023-03-20T10:34:24;96670.16;;;12.12;100.00
46724;BME280;32463;48.298;11.620;2023-03-20T10:42:36;96637.66;;;14.98;84.27
46724;BME280;32463;48.298;11.620;2023-03-20T10:47:55;96628.88;;;16.36;64.63
46724;BME280;32463;48.298;11.620;2023-03-20T10:50:30;96629.97;;;16.42;63.56
46724;BME280;32463;48.298;11.620;2023-03-20T10:52:59;96639.25;;;13.62;73.74
46724;BME280;32463;48.298;11.620;2023-03-20T10:55:33;96634.69;;;13.64;79.81
46724;BME280;32463;48.298;11.620;2023-03-20T10:58:21;96628.75;;;14.69;74.11
46724;BME280;32463;48.298;11.620;2023-03-20T11:00:49;96625.31;;;16.01;67.90
46724;BME280;32463;48.298;11.620;2023-03-20T11:03:21;96628.28;;;14.89;67.69
46724;BME280;32463;48.298;11.620;2023-03-20T11:05:56;96623.66;;;14.76;69.99
46724;BME280;32463;48.298;11.620;2023-03-20T11:08:24;96627.72;;;14.10;74.03
46724;BME280;32463;48.298;11.620;2023-03-20T11:11:00;96629.16;;;13.59;78.95
46724;BME280;32463;48.298;11.620;2023-03-20T11:13:33;96625.03;;;13.41;81.67
46724;BME280;32463;48.298;11.620;2023-03-20T11:18:39;96624.34;;;12.68;93.05
46724;BME280;32463;48.298;11.620;2023-03-20T11:21:09;96623.88;;;12.16;99.34
46724;BME280;32463;48.298;11.620;2023-03-20T11:23:39;96626.66;;;12.22;98.51
46724;BME280;32463;48.298;11.620;2023-03-20T11:26:16;96622.56;;;12.76;93.24
46724;BME280;32463;48.298;11.620;2023-03-20T11:28:52;96615.03;;;12.98;88.73
46724;BME280;32463;48.298;11.620;2023-03-20T11:31:39;96621.88;;;12.99;89.99
46724;BME280;32463;48.298;11.620;2023-03-20T11:34:11;96614.34;;;13.90;85.43
46724;BME280;32463;48.298;11.620;2023-03-20T11:36:57;96617.56;;;14.00;82.69
46724;BME280;32463;48.298;11.620;2023-03-20T11:39:31;96620.47;;;14.05;77.06
46724;BME280;32463;48.298;11.620;2023-03-20T11:42:01;96615.25;;;13.43;80.67
46724;BME280;32463;48.298;11.620;2023-03-20T11:44:32;96611.47;;;12.91;80.40
46724;BME280;32463;48.298;11.620;2023-03-20T11:47:17;96610.78;;;13.05;80.24
46724;BME280;32463;48.298;11.620;2023-03-20T11:49:53;96614.75;;;12.68;77.97
46724;BME280;32463;48.298;11.620;2023-03-20T11:52:22;96611.19;;;12.77;76.46
46724;BME280;32463;48.298;11.620;2023-03-20T11:54:52;96605.88;;;13.18;76.80
46724;BME280;32463;48.298;11.620;2023-03-20T11:57:46;96615.31;;;13.27;74.06
46724;BME280;32463;48.298;11.620;2023-03-20T12:00:21;96611.34;;;12.60;81.49
46724;BME280;32463;48.298;11.620;2023-03-20T12:02:49;96608.25;;;12.64;83.06
46724;BME280;32463;48.298;11.620;2023-03-20T12:05:33;96599.09;;;12.93;81.34
46724;BME280;32463;48.298;11.620;2023-03-20T12:10:31;96595.94;;;13.61;72.71
46724;BME280;32463;48.298;11.620;2023-03-20T12:13:12;96615.84;;;13.54;73.62
46724;BME280;32463;48.298;11.620;2023-03-20T12:15:45;96609.47;;;13.09;74.06
46724;BME280;32463;48.298;11.620;2023-03-20T12:18:35;96603.66;;;12.91;78.33
46724;BME280;32463;48.298;11.620;2023-03-20T12:23:45;96603.69;;;12.74;79.15
46724;BME280;32463;48.298;11.620;2023-03-20T12:26:34;96585.66;;;12.81;80.64
46724;BME280;32463;48.298;11.620;2023-03-20T12:29:06;96593.28;;;12.82;77.45
46724;BME280;32463;48.298;11.620;2023-03-20T12:32:19;96596.91;;;12.25;80.04
46724;BME280;32463;48.298;11.620;2023-03-20T12:36:59;96588.09;;;12.74;81.54
46724;BME280;32463;48.298;11.620;2023-03-20T12:39:37;96585.66;;;12.57;80.82
46724;BME280;32463;48.298;11.620;2023-03-20T12:44:47;96584.84;;;13.67;74.77
46724;BME280;32463;48.298;11.620;2023-03-20T12:50:37;96558.09;;;14.19;70.22
46724;BME280;32463;48.298;11.620;2023-03-20T12:53:33;96567.84;;;14.02;68.47
46724;BME280;32463;48.298;11.620;2023-03-20T13:01:44;96573.34;;;13.14;70.66
46724;BME280;32463;48.298;11.620;2023-03-20T13:07:19;96582.44;;;13.26;71.72
46724;BME280;32463;48.298;11.620;2023-03-20T13:21:15;96584.34;;;13.40;73.83
46724;BME280;32463;48.298;11.620;2023-03-20T13:24:17;96569.56;;;13.64;71.32
46724;BME280;32463;48.298;11.620;2023-03-20T13:26:53;96570.91;;;14.05;69.07
46724;BME280;32463;48.298;11.620;2023-03-20T13:38:22;96570.56;;;13.55;70.75
46724;BME280;32463;48.298;11.620;2023-03-20T13:40:54;96569.44;;;14.26;67.11
46724;BME280;32463;48.298;11.620;2023-03-20T13:43:34;96567.94;;;14.54;64.34
46724;BME280;32463;48.298;11.620;2023-03-20T13:46:24;96569.75;;;15.27;61.34
46724;BME280;32463;48.298;11.620;2023-03-20T13:48:53;96560.94;;;15.28;60.60
46724;BME280;32463;48.298;11.620;2023-03-20T13:51:46;96560.13;;;15.28;60.59
46724;BME280;32463;48.298;11.620;2023-03-20T14:05:28;96541.00;;;16.21;55.37
46724;BME280;32463;48.298;11.620;2023-03-20T14:08:20;96540.66;;;15.81;57.14
46724;BME280;32463;48.298;11.620;2023-03-20T14:10:47;96541.16;;;16.12;56.04
46724;BME280;32463;48.298;11.620;2023-03-20T14:13:19;96533.88;;;15.87;57.30
46724;BME280;32463;48.298;11.620;2023-03-20T14:15:54;96537.66;;;15.84;56.60
46724;BME280;32463;48.298;11.620;2023-03-20T14:18:23;96521.81;;;17.38;53.10
46724;BME280;32463;48.298;11.620;2023-03-20T14:20:54;96521.78;;;17.99;49.52
46724;BME280;32463;48.298;11.620;2023-03-20T14:23:47;96525.09;;;17.06;51.98
46724;BME280;32463;48.298;11.620;2023-03-20T14:26:38;96518.94;;;16.86;51.37
46724;BME280;32463;48.298;11.620;2023-03-20T14:31:37;96522.16;;;15.46;55.87
46724;BME280;32463;48.298;11.620;2023-03-20T14:48:24;96522.13;;;14.14;61.36
46724;BME280;32463;48.298;11.620;2023-03-20T14:53:39;96527.00;;;13.94;61.13
46724;BME280;32463;48.298;11.620;2023-03-20T14:56:06;96524.88;;;13.75;60.69
46724;BME280;32463;48.298;11.620;2023-03-20T15:01:23;96514.75;;;14.18;59.10
46724;BME280;32463;48.298;11.620;2023-03-20T15:06:31;96511.94;;;14.04;59.82
46724;BME280;32463;48.298;11.620;2023-03-20T15:09:03;96514.31;;;13.91;60.71
46724;BME280;32463;48.298;11.620;2023-03-20T15:11:32;96509.34;;;14.04;59.59
46724;BME280;32463;48.298;11.620;2023-03-20T15:14:02;96506.50;;;13.91;60.38
46724;BME280;32463;48.298;11.620;2023-03-20T15:16:31;96515.31;;;13.44;61.06
46724;BME280;32463;48.298;11.620;2023-03-20T15:18:58;96509.72;;;13.17;63.70
46724;BME280;32463;48.298;11.620;2023-03-20T15:21:32;96511.50;;;13.24;62.90